• Join FlightAware (Why Join?)
  • Login
  • US Flag 
05:34PM EDT


 

Airport Tracker/Info


-or-


 

Live Flight TrackerFlight Track Log ✈ SWA308 ✈ 21-Jun-2013 ✈ KMDW - KSEA

Flight Track Log - Related Links

Times and Time Zones

All times are in EDT time to prevent confusion due to time zone crossing. See the SWA308 flight status page for this flight to view local times or setup timezone preferences in your user account.

Time Position Orientation Groundspeed Altitude Reporting Facility
EDT Latitude Longitude Course Direction KTS MPH feet Rate Location/Type
09:54PM 41.7500 -87.7833 277° West 148 170 2,900  Level Chicago TRACON
09:55PM 41.7469 -87.8178 263° West 171 197 3,100 600 Climbing Chicago Center
09:56PM 41.7400 -87.9161 265° West 229 264 4,000 840 Climbing Chicago Center
09:57PM 41.7778 -87.9950 303° West 269 310 4,900 2,040 Climbing Chicago Center
09:58PM 41.8367 -88.0542 323° Northwest 269 310 8,200 2,940 Climbing Chicago Center
09:59PM 41.8925 -88.1183 319° Northwest 268 308 11,000 2,520 Climbing Chicago Center
10:00PM 41.8781 -88.7016 277° West  Level FlightAware Approximate
10:00PM 41.9347 -88.2047 303° West 293 337 13,400  Level Chicago Center
10:01PM 41.9647 -88.3308 288° West 298 343 15,900 1,920 Climbing Chicago Center
10:02PM 41.9922 -88.4492 287° West 326 375 17,400 1,500 Climbing Chicago Center
10:03PM 42.0233 -88.5844 287° West 373 429 19,000 1,560 Climbing Chicago Center
10:04PM 42.0436 -88.7319 281° West 406 467 20,700 1,740 Climbing Chicago Center
10:05PM 42.0597 -88.8864 278° West 420 483 22,600 1,920 Climbing Chicago Center
10:06PM 42.0786 -89.0669 278° West 426 490 24,700 1,800 Climbing Chicago Center
10:07PM 42.0953 -89.2308 278° West 436 502 26,300 1,320 Climbing Chicago Center
10:08PM 42.1144 -89.3986 279° West 448 516 27,500 1,080 Climbing Chicago Center
10:09PM 42.1283 -89.5700 276° West 457 526 28,600 1,380 Climbing Chicago Center
10:10PM 42.1275 -89.7478 270° West 470 541 30,400 1,920 Climbing Chicago Center
10:11PM 42.1286 -89.9244 271° West 452 520 32,600 1,620 Climbing Chicago Center
10:13PM 42.1342 -90.0831 273° West 431 496 33,800 1,020 Climbing Chicago Center
10:14PM 42.1558 -90.2442 280° West 438 504 34,800 960 Climbing Chicago Center
10:15PM 42.1769 -90.4039 280° West 437 503 35,800 540 Climbing Chicago Center
10:16PM 42.1958 -90.5617 279° West 431 496 36,000 60 Climbing Chicago Center
10:17PM 42.2197 -90.7528 280° West 432 497 36,000  Level Chicago Center
10:18PM 42.2406 -90.9083 280° West 427 491 36,000  Level Chicago Center
10:19PM 42.2575 -91.0664 278° West 426 490 36,000  Level Chicago Center
10:20PM 42.2786 -91.2203 281° West 423 487 36,000  Level Chicago Center
10:21PM 42.2967 -91.3753 279° West 419 482 36,000  Level Chicago Center
10:22PM 42.3158 -91.5303 280° West 418 481 36,000  Level Chicago Center
10:23PM 42.3336 -91.6839 279° West 415 478 36,000  Level Chicago Center
10:24PM 42.3550 -91.8644 279° West 408 470 36,000  Level Chicago Center
10:25PM 42.3728 -92.0178 279° West 411 473 36,000  Level Chicago Center
10:26PM 42.3906 -92.1753 279° West 419 482 36,000  Level Chicago Center
10:27PM 42.4089 -92.3342 279° West 428 493 36,000  Level Chicago Center
10:28PM 42.4256 -92.4931 278° West 428 493 36,000  Level Chicago Center
10:29PM 42.4442 -92.6544 279° West 435 501 36,000  Level Chicago Center
10:30PM 42.4614 -92.8169 278° West 439 505 36,000  Level Chicago Center
10:31PM 42.4819 -93.0086 278° West 434 499 36,000  Level Chicago Center
10:32PM 42.4953 -93.1375 278° West 433 498 36,000  Level Minneapolis Center
10:33PM 42.5122 -93.2947 278° West 428 493 36,000 300 Level Minneapolis Center
10:34PM 42.5278 -93.4528 278° West 427 491 36,700 480 Climbing Minneapolis Center
10:35PM 42.5431 -93.6114 278° West 428 493 37,000 120 Climbing Minneapolis Center
10:36PM 42.5597 -93.7692 278° West 429 494 37,000  Level Minneapolis Center
10:37PM 42.5722 -93.8969 278° West 430 495 37,000  Level Minneapolis Center
10:38PM 42.5917 -94.0878 278° West 430 495 37,000  Level Minneapolis Center
10:39PM 42.6100 -94.2753 278° West 424 488 37,000  Level Minneapolis Center
10:40PM 42.6597 -94.4242 294° West 437 503 37,000  Level Minneapolis Center
10:41PM 42.7317 -94.5625 305° West 449 517 37,000  Level Minneapolis Center
10:42PM 42.8164 -94.7117 308° West 454 522 37,000  Level Minneapolis Center
10:43PM 42.8958 -94.8444 309° West 453 521 37,000  Level Minneapolis Center
10:44PM 42.9731 -94.9803 308° West 453 521 37,000  Level Minneapolis Center
10:45PM 43.0511 -95.1108 309° West 448 516 37,000  Level Minneapolis Center
10:46PM 43.1294 -95.2425 309° West 446 513 37,000  Level Minneapolis Center
10:47PM 43.2069 -95.3756 309° West 447 514 37,000  Level Minneapolis Center
10:48PM 43.2831 -95.5089 308° West 445 512 37,000  Level Minneapolis Center
10:49PM 43.3442 -95.6150 308° West 444 511 37,000  Level Minneapolis Center
10:50PM 43.4344 -95.7733 308° West 440 506 37,000  Level Minneapolis Center
10:51PM 43.5392 -95.9597 308° West 439 505 37,000  Level Minneapolis Center
10:52PM 43.6156 -96.0900 309° West 437 503 37,000  Level Minneapolis Center
10:53PM 43.6942 -96.2186 310° West 437 503 37,000  Level Minneapolis Center
10:54PM 43.7728 -96.3436 311° West 432 497 37,000  Level Minneapolis Center
10:55PM 43.8378 -96.4797 304° West 423 487 37,000  Level Minneapolis Center
10:57PM 43.8936 -96.6275 298° West 429 494 37,000  Level Minneapolis Center
10:58PM 43.9372 -96.7836 291° West 431 496 37,000  Level Minneapolis Center
10:59PM 43.9817 -96.9419 291° West 437 503 37,100  Climbing Minneapolis Center
11:00PM 44.0278 -97.1022 292° West 444 511 37,000 -60 Descending Minneapolis Center
11:01PM 44.0725 -97.2636 291° West 446 513 37,000  Level Minneapolis Center
11:02PM 44.1172 -97.4219 292° West 442 509 37,000  Level Minneapolis Center
11:03PM 44.1608 -97.5797 291° West 438 504 37,000  Level Minneapolis Center
11:05PM 44.2478 -97.8967 291° West 438 504 37,000  Level Minneapolis Center
11:06PM 44.2994 -98.0875 291° West 439 505 37,000  Level Minneapolis Center
11:07PM 44.3506 -98.2758 291° West 435 501 37,000 240 Level Minneapolis Center
11:08PM 44.3889 -98.4203 290° West 422 486 37,600 480 Climbing Minneapolis Center
11:09PM 44.4289 -98.5692 291° West 410 472 38,000 180 Climbing Minneapolis Center
11:10PM 44.4442 -98.7275 278° West 410 472 38,000  Level Minneapolis Center
11:11PM 44.4664 -98.8850 281° West 410 472 38,000  Level Minneapolis Center
11:12PM 44.4922 -99.0453 283° West 419 482 38,000  Level Minneapolis Center
11:13PM 44.5264 -99.2044 287° West 424 488 38,000  Level Minneapolis Center
11:14PM 44.5572 -99.3619 285° West 421 484 38,000  Level Minneapolis Center
11:15PM 44.5908 -99.5525 284° West 418 481 38,000  Level Minneapolis Center
11:16PM 44.6242 -99.7056 287° West 412 474 38,000  Level Minneapolis Center
11:17PM 44.6589 -99.8294 292° West 416 479 38,000  Level Minneapolis Center
11:18PM 44.7097 -100.0164 291° West 421 484 38,000  Level Minneapolis Center
11:19PM 44.7481 -100.1739 289° West 422 486 38,000  Level Minneapolis Center
11:20PM 44.7883 -100.3306 290° West 422 486 38,000  Level Minneapolis Center
11:21PM 44.8275 -100.4861 290° West 420 483 38,000  Level Minneapolis Center
11:22PM 44.8675 -100.6439 290° West 423 487 38,000  Level Minneapolis Center
11:23PM 44.9064 -100.8025 289° West 425 489 38,000  Level Minneapolis Center
11:24PM 44.9461 -100.9625 289° West 428 493 38,000  Level Minneapolis Center
11:25PM 44.9875 -101.1261 290° West 436 502 38,000  Level Minneapolis Center
11:26PM 45.0286 -101.2900 290° West 440 506 38,000  Level Minneapolis Center
11:27PM 45.0672 -101.4547 288° West 441 507 38,000  Level Minneapolis Center
11:28PM 45.1078 -101.6200 289° West 443 510 38,000  Level Minneapolis Center
11:29PM 45.1481 -101.7858 289° West 445 512 38,000  Level Minneapolis Center
11:30PM 45.1947 -101.9850 288° West 444 511 38,000  Level Minneapolis Center
11:31PM 45.2322 -102.1508 288° West 442 509 38,000  Level Minneapolis Center
11:32PM 45.2722 -102.3161 289° West 443 510 38,000  Level Minneapolis Center
11:33PM 45.3106 -102.4828 288° West 444 511 38,000  Level Minneapolis Center
11:34PM 45.3486 -102.6511 288° West 447 514 38,000  Level Minneapolis Center
11:35PM 45.3858 -102.8206 287° West 449 517 38,000  Level Minneapolis Center
11:36PM 45.4247 -102.9908 288° West 451 519 38,000  Level Minneapolis Center
11:38PM 45.4622 -103.1625 287° West 453 521 38,000  Level Minneapolis Center
11:39PM 45.5097 -103.3756 288° West 454 522 38,000  Level Minneapolis Center
11:40PM 45.5481 -103.5500 287° West 458 527 38,000  Level Minneapolis Center
11:41PM 45.5858 -103.7244 287° West 460 529 38,000  Level Minneapolis Center
11:42PM 45.6228 -103.8989 287° West 460 529 38,000  Level Minneapolis Center
11:43PM 45.6606 -104.0744 287° West 461 531 38,000  Level Minneapolis Center
11:44PM 45.6978 -104.2506 287° West 463 533 38,000  Level Minneapolis Center
11:45PM 45.7331 -104.4256 286° West 460 529 38,000  Level Minneapolis Center
11:46PM 45.7839 -104.6747 286° West 464 534 38,000  Level Salt Lake Center
11:47PM 45.8206 -104.8517 287° West 464 534 38,000  Level Salt Lake Center
11:48PM 45.8639 -105.0639 286° West 464 534 38,000  Level Salt Lake Center
11:49PM 45.8992 -105.2408 286° West 463 533 38,000  Level Salt Lake Center
11:50PM 45.9336 -105.4161 286° West 461 531 38,000  Level Salt Lake Center
11:51PM 45.9681 -105.5906 286° West 458 527 38,000  Level Salt Lake Center
11:52PM 46.0022 -105.7664 286° West 457 526 38,000  Level Salt Lake Center
11:53PM 46.0358 -105.9408 286° West 456 525 38,000  Level Salt Lake Center
11:54PM 46.0697 -106.1164 286° West 455 524 38,000  Level Salt Lake Center
11:55PM 46.1022 -106.2897 285° West 454 522 38,000  Level Salt Lake Center
11:56PM 46.1350 -106.4625 285° West 451 519 38,000  Level Salt Lake Center
11:57PM 46.1672 -106.6328 285° West 448 516 38,000  Level Salt Lake Center
11:58PM 46.1972 -106.8053 284° West 447 514 38,000  Level Salt Lake Center
11:59PM 46.2281 -106.9778 285° West 446 513 38,000  Level Salt Lake Center
12:00AM 46.2661 -107.1842 285° West 444 511 38,000  Level Salt Lake Center
12:01AM 46.3006 -107.3569 286° West 448 516 38,000  Level Salt Lake Center
12:02AM 46.3342 -107.5469 284° West 455 524 38,000  Level Salt Lake Center
12:04AM 46.3653 -107.7219 285° West 458 527 38,000  Level Salt Lake Center
12:05AM 46.3958 -107.8969 284° West 455 524 38,000  Level Salt Lake Center
12:06AM 46.4292 -108.0864 284° West 454 522 38,000  Level Salt Lake Center
12:07AM 46.4589 -108.2600 284° West 451 519 38,000  Level Salt Lake Center
12:08AM 46.4889 -108.4339 284° West 450 518 38,000  Level Salt Lake Center
12:09AM 46.5194 -108.6206 283° West 447 514 38,000  Level Salt Lake Center
12:10AM 46.5478 -108.7925 284° West 445 512 38,000  Level Salt Lake Center
12:11AM 46.5772 -108.9650 284° West 450 518 38,000  Level Salt Lake Center
12:12AM 46.6081 -109.1536 283° West 444 511 38,000  Level Salt Lake Center
12:13AM 46.6358 -109.3286 283° West 448 516 38,000  Level Salt Lake Center
12:14AM 46.6611 -109.4964 282° West 455 524 38,000  Level Salt Lake Center
12:15AM 46.6892 -109.6717 283° West 450 518 38,000  Level Salt Lake Center
12:16AM 46.7153 -109.8467 282° West 443 510 38,000  Level Salt Lake Center
12:17AM 46.7428 -110.0206 283° West 442 509 38,000  Level Salt Lake Center
12:18AM 46.7692 -110.1944 283° West 441 507 38,000  Level Salt Lake Center
12:19AM 46.7958 -110.3714 282° West 443 510 38,000  Level Salt Lake Center
12:20AM 46.8219 -110.5472 282° West 445 512 38,000  Level Salt Lake Center
12:21AM 46.8494 -110.7247 283° West 446 513 38,000  Level Salt Lake Center
12:22AM 46.8808 -110.9383 282° West 448 516 38,000  Level Salt Lake Center
12:23AM 46.9072 -111.1192 282° West 452 520 38,000  Level Salt Lake Center
12:24AM 46.9317 -111.2997 281° West 452 520 38,000  Level Salt Lake Center
12:25AM 46.9567 -111.4797 282° West 451 519 38,000  Level Salt Lake Center
12:26AM 46.9822 -111.6622 282° West 454 522 38,000  Level Salt Lake Center
12:27AM 47.0067 -111.8428 281° West 453 521 38,000  Level Salt Lake Center
12:28AM 47.0317 -112.0244 281° West 454 522 38,000  Level Salt Lake Center
12:29AM 47.0550 -112.2047 281° West 452 520 38,000  Level Salt Lake Center
12:30AM 47.0797 -112.3836 282° West 449 517 38,000  Level Salt Lake Center
12:31AM 47.1025 -112.5639 281° West 449 517 38,000  Level Salt Lake Center
12:32AM 47.1258 -112.7422 281° West 446 513 38,000  Level Salt Lake Center
12:33AM 47.1506 -112.9378 281° West 452 520 38,000  Level Salt Lake Center
12:34AM 47.1728 -113.1192 280° West 451 519 38,000  Level Salt Lake Center
12:35AM 47.1947 -113.3014 280° West 453 521 38,000  Level Salt Lake Center
12:36AM 47.2169 -113.4833 280° West 453 521 38,000  Level Salt Lake Center
12:37AM 47.2392 -113.6669 280° West 456 525 38,000  Level Salt Lake Center
12:38AM 47.2603 -113.8503 280° West 456 525 38,000  Level Salt Lake Center
12:39AM 47.2822 -114.0342 280° West 455 524 38,000  Level Salt Lake Center
12:40AM 47.3033 -114.2178 280° West 453 521 38,000  Level Salt Lake Center
12:41AM 47.3239 -114.4028 279° West 456 525 38,000  Level Salt Lake Center
12:42AM 47.3489 -114.6242 280° West 455 524 38,000  Level Salt Lake Center
12:43AM 47.3697 -114.8094 279° West 456 525 38,000  Level Salt Lake Center
12:44AM 47.3894 -114.9967 279° West 459 528 38,000  Level Salt Lake Center
12:45AM 47.4083 -115.1825 279° West 458 527 38,000  Level Salt Lake Center
12:46AM 47.4269 -115.3694 278° West 460 529 38,000  Level Salt Lake Center
12:47AM 47.4453 -115.5542 278° West 456 525 38,000  Level Salt Lake Center
12:48AM 47.4625 -115.7386 278° West 455 524 38,000  Level Salt Lake Center
12:49AM 47.4800 -115.9200 278° West 448 516 38,000  Level Salt Lake Center
12:50AM 47.4964 -116.0978 278° West 448 516 38,000  Level Salt Lake Center
12:51AM 47.5128 -116.2814 278° West 452 520 38,000  Level Salt Lake Center
12:53AM 47.5364 -116.5375 278° West 451 519 38,000  Level Seattle Center
12:54AM 47.5522 -116.7231 277° West 454 522 38,000  Level Seattle Center
12:55AM 47.5681 -116.9089 277° West 456 525 38,000  Level Seattle Center
12:56AM 47.5853 -117.1031 278° West 460 529 38,000  Level Seattle Center
12:57AM 47.5992 -117.2678 277° West 463 533 38,000  Level Seattle Center
12:58AM 47.6175 -117.4919 277° West 460 529 38,000  Level Seattle Center
12:59AM 47.6322 -117.6783 277° West 458 527 38,000  Level Seattle Center
01:00AM 47.6464 -117.8619 277° West 453 521 38,000  Level Seattle Center
01:01AM 47.6606 -118.0475 277° West 453 521 38,000  Level Seattle Center
01:02AM 47.6744 -118.2303 277° West 449 517 38,000  Level Seattle Center
01:03AM 47.6875 -118.4156 276° West 452 520 38,000  Level Seattle Center
01:04AM 47.7006 -118.6017 276° West 455 524 38,000  Level Seattle Center
01:05AM 47.7133 -118.7875 276° West 454 522 38,000  Level Seattle Center
01:06AM 47.7264 -118.9708 276° West 448 516 38,000  Level Seattle Center
01:07AM 47.7389 -119.1583 276° West 456 525 38,000  Level Seattle Center
01:08AM 47.7497 -119.3425 275° West 451 519 38,000  Level Seattle Center
01:09AM 47.7628 -119.5306 276° West 458 527 38,000  Level Seattle Center
01:10AM 47.7736 -119.7147 275° West 452 520 38,000 -180 Level Seattle Center
01:11AM 47.7842 -119.8994 275° West 451 519 37,700 -900 Descending Seattle Center
01:12AM 47.7936 -120.0850 274° West 451 519 36,300 -2,160 Descending Seattle Center
01:13AM 47.7922 -120.2692 269° West 448 516 33,400 -3,060 Descending Seattle Center
01:14AM 47.7897 -120.4492 269° West 439 505 30,200 -3,000 Descending Seattle Center
01:15AM 47.7878 -120.6267 269° West 434 499 27,300 -2,520 Descending Seattle Center
01:16AM 47.7850 -120.8019 269° West 428 493 25,200 -2,100 Descending Seattle Center
01:17AM 47.7864 -120.9778 271° West 402 463 23,100 -2,160 Descending Seattle Center
01:17AM 47.7839 -121.0908 268° West 392 451 21,800 -1,980 Descending Seattle Center
01:18AM 47.7800 -121.2458 268° West 371 427 20,000 -1,800 Descending Seattle Center
01:19AM 47.7781 -121.3925 269° West 355 409 18,200 -1,740 Descending Seattle Center
01:20AM 47.7750 -121.5433 268° West 363 418 16,600 -2,040 Descending Seattle Center
01:21AM 47.7725 -121.6803 268° West 368 423 14,300 -2,520 Descending Seattle Center
01:22AM 47.7697 -121.7592 267° West 360 414 13,100 -1,740 Descending Seattle Center
01:23AM 47.7483 -121.8933 257° West 349 402 11,700 -1,440 Descending Seattle Center
01:24AM 47.6792 -121.9831 221° Southwest 329 379 10,200 -900 Descending Seattle Center
01:25AM 47.6139 -122.0719 223° Southwest 318 366 10,000 -120 Descending Seattle Center
01:26AM 47.5564 -122.1475 222° Southwest 278 320 10,000 -600 Level Seattle Center
01:27AM 47.4786 -122.1575 185° South 263 303 8,900 -1,260 Descending Seattle Center
01:28AM 47.4056 -122.1542 178° South 261 300 7,500 -1,200 Descending Seattle Center
01:29AM 47.3339 -122.1519 179° South 257 296 6,600 -840 Descending Seattle Center
01:30AM 47.2828 -122.1889 206° Southwest 227 261 5,900 -900 Descending Seattle Center
01:31AM 47.2786 -122.2653 265° West 192 221 4,800 -1,200 Descending Seattle Center
01:32AM 47.3081 -122.3186 309° West 171 197 3,600 -1,200 Descending Seattle Center
01:33AM 47.3494 -122.3178 North 152 175 2,400 -1,140 Descending Seattle Center
01:34AM 47.3708 -122.3197 356° North 147 169 1,900 -960 Descending Seattle Center
01:35AM 47.4197 -122.3189 North 150 173 800 -660 Descending Seattle Center
01:36AM 47.4786 -122.3194 360° North 152 175 300 -420 Descending Seattle Center